createdAt,value
2023-04-15T00:00:11.844Z,14.20
2023-04-15T00:01:10.895Z,11.60
2023-04-15T00:02:10.931Z,10.80
2023-04-15T00:03:10.985Z,11.00
2023-04-15T00:04:11.927Z,11.40
2023-04-15T00:05:10.838Z,10.50
2023-04-15T00:06:10.898Z,14.00
2023-04-15T00:07:10.802Z,11.70
2023-04-15T00:08:10.815Z,12.30
2023-04-15T00:09:11.379Z,14.50
2023-04-15T00:10:10.798Z,13.50
2023-04-15T00:11:10.826Z,12.80
2023-04-15T00:12:10.761Z,15.50
2023-04-15T00:13:12.287Z,11.40
2023-04-15T00:14:10.718Z,11.90
2023-04-15T00:15:10.734Z,16.40
2023-04-15T00:16:10.781Z,11.90
2023-04-15T00:17:10.691Z,12.30
2023-04-15T00:18:10.714Z,11.60
2023-04-15T00:19:10.682Z,14.60
2023-04-15T00:20:10.678Z,12.60
2023-04-15T00:21:10.666Z,12.10
2023-04-15T00:22:10.656Z,16.20
2023-04-15T00:23:10.625Z,12.20
2023-04-15T00:24:10.666Z,16.10
2023-04-15T00:25:10.611Z,13.50
2023-04-15T00:26:10.590Z,13.70
2023-04-15T00:27:10.615Z,12.00
2023-04-15T00:28:10.570Z,13.70
2023-04-15T00:29:10.539Z,11.00
2023-04-15T00:30:10.582Z,14.00
2023-04-15T00:31:10.588Z,13.50
2023-04-15T00:32:10.527Z,11.30
2023-04-15T00:33:10.527Z,10.90
2023-04-15T00:34:10.519Z,11.60
2023-04-15T00:35:10.525Z,11.70
2023-04-15T00:36:10.533Z,12.20
2023-04-15T00:37:10.450Z,13.20
2023-04-15T00:38:10.478Z,11.40
2023-04-15T00:39:10.510Z,14.90
2023-04-15T00:40:10.441Z,12.20
2023-04-15T00:41:10.430Z,13.30
2023-04-15T00:42:10.433Z,14.70
2023-04-15T00:43:11.380Z,12.50
2023-04-15T00:44:10.409Z,15.20
2023-04-15T00:45:10.376Z,12.60
2023-04-15T00:46:10.427Z,12.20
2023-04-15T00:47:10.357Z,14.60
2023-04-15T00:48:10.397Z,11.40
2023-04-15T00:49:10.414Z,13.10
2023-04-15T00:50:10.358Z,14.60
2023-04-15T00:51:10.338Z,12.40
2023-04-15T00:52:10.293Z,12.60
2023-04-15T00:53:10.339Z,12.30
2023-04-15T00:54:10.333Z,13.50
2023-04-15T00:55:10.297Z,14.70
2023-04-15T00:56:10.314Z,10.60
2023-04-15T00:57:10.254Z,14.10
2023-04-15T00:58:10.246Z,12.80
2023-04-15T00:59:10.274Z,14.10
2023-04-15T01:00:10.248Z,12.70
2023-04-15T01:01:10.260Z,11.60
2023-04-15T01:02:10.455Z,13.30
2023-04-15T01:03:10.330Z,13.90
2023-04-15T01:04:10.826Z,13.90
2023-04-15T01:05:10.190Z,11.70
2023-04-15T01:06:11.308Z,12.20
2023-04-15T01:07:10.129Z,12.20
2023-04-15T01:08:10.138Z,12.80
2023-04-15T01:09:10.105Z,11.90
2023-04-15T01:10:10.142Z,13.00
2023-04-15T01:11:10.830Z,13.70
2023-04-15T01:12:10.099Z,15.40
2023-04-15T01:13:10.094Z,14.30
2023-04-15T01:14:10.085Z,14.20
2023-04-15T01:15:10.049Z,13.50
2023-04-15T01:16:10.122Z,12.60
2023-04-15T01:17:10.050Z,15.60
2023-04-15T01:18:10.029Z,17.40
2023-04-15T01:19:10.008Z,13.50
2023-04-15T01:20:10.055Z,14.90
2023-04-15T01:21:09.995Z,14.80
2023-04-15T01:22:09.976Z,10.90
2023-04-15T01:23:09.983Z,15.10
2023-04-15T01:24:09.970Z,14.30
2023-04-15T01:25:09.973Z,14.60
2023-04-15T01:26:09.925Z,13.20
2023-04-15T01:27:09.910Z,13.10
2023-04-15T01:28:09.910Z,12.70
2023-04-15T01:29:09.889Z,13.30
2023-04-15T01:30:09.896Z,15.10
2023-04-15T01:31:09.895Z,14.50
2023-04-15T01:32:10.767Z,15.70
2023-04-15T01:33:09.842Z,15.70
2023-04-15T01:34:09.826Z,14.20
2023-04-15T01:35:09.838Z,14.50
2023-04-15T01:36:09.822Z,16.20
2023-04-15T01:37:09.885Z,13.40
2023-04-15T01:38:09.840Z,14.90
2023-04-15T01:39:09.787Z,13.50
2023-04-15T01:40:09.765Z,16.30
2023-04-15T01:41:09.746Z,19.60
2023-04-15T01:42:09.741Z,16.20
2023-04-15T01:43:09.745Z,15.90
2023-04-15T01:44:09.694Z,16.50
2023-04-15T01:45:09.706Z,16.20
2023-04-15T01:46:09.725Z,13.90
2023-04-15T01:47:09.694Z,13.50
2023-04-15T01:48:09.696Z,13.20
2023-04-15T01:49:09.675Z,18.80
2023-04-15T01:50:09.651Z,14.70
2023-04-15T01:51:09.667Z,16.10
2023-04-15T01:52:09.587Z,14.00
2023-04-15T01:53:09.606Z,14.70
2023-04-15T01:54:09.628Z,15.70
2023-04-15T01:55:09.578Z,13.40
2023-04-15T01:56:09.608Z,15.50
2023-04-15T01:57:09.576Z,14.50
2023-04-15T01:58:09.578Z,12.60
2023-04-15T01:59:10.201Z,13.80
2023-04-15T02:00:09.533Z,15.70
2023-04-15T02:01:09.556Z,13.20
2023-04-15T02:02:09.659Z,15.20
2023-04-15T02:03:09.541Z,17.40
2023-04-15T02:04:09.546Z,17.80
2023-04-15T02:05:09.513Z,16.90
2023-04-15T02:06:09.459Z,14.10
2023-04-15T02:07:09.492Z,13.70
2023-04-15T02:08:10.394Z,13.20
2023-04-15T02:09:09.561Z,15.30
2023-04-15T02:10:09.435Z,18.00
2023-04-15T02:11:09.446Z,15.50
2023-04-15T02:12:09.407Z,15.30
2023-04-15T02:13:09.383Z,17.00
2023-04-15T02:14:09.446Z,16.50
2023-04-15T02:15:09.383Z,16.80
2023-04-15T02:16:09.411Z,18.80
2023-04-15T02:17:09.336Z,17.40
2023-04-15T02:18:09.362Z,18.00
2023-04-15T02:19:09.537Z,18.60
2023-04-15T02:20:09.356Z,18.40
2023-04-15T02:21:09.303Z,19.30
2023-04-15T02:22:09.334Z,15.70
2023-04-15T02:23:09.338Z,20.10
2023-04-15T02:24:09.312Z,19.10
2023-04-15T02:25:09.276Z,21.10
2023-04-15T02:26:09.260Z,19.10
2023-04-15T02:27:09.288Z,18.90
2023-04-15T02:28:09.236Z,19.10
2023-04-15T02:29:09.200Z,15.60
2023-04-15T02:30:09.267Z,18.80
2023-04-15T02:31:09.254Z,18.50
2023-04-15T02:32:09.266Z,18.00
2023-04-15T02:33:09.157Z,17.80
2023-04-15T02:34:09.138Z,16.20
2023-04-15T02:35:09.204Z,20.10
2023-04-15T02:36:09.166Z,15.60
2023-04-15T02:37:09.157Z,17.30
2023-04-15T02:38:09.125Z,19.30
2023-04-15T02:39:09.107Z,19.30
2023-04-15T02:40:09.112Z,21.00
2023-04-15T02:41:09.080Z,15.50
2023-04-15T02:42:42.772Z,17.00
2023-04-15T02:43:09.075Z,23.30
2023-04-15T02:44:10.906Z,16.90
2023-04-15T02:45:09.015Z,18.80
2023-04-15T02:46:10.092Z,22.20
2023-04-15T02:47:09.054Z,21.30
2023-04-15T02:48:09.012Z,14.90
2023-04-15T02:49:09.025Z,22.20
2023-04-15T02:50:09.545Z,20.50
2023-04-15T02:51:08.969Z,20.90
2023-04-15T02:52:08.986Z,20.50
2023-04-15T02:53:08.942Z,17.60
2023-04-15T02:54:08.950Z,17.90
2023-04-15T02:55:08.905Z,17.50
2023-04-15T02:56:08.914Z,23.70
2023-04-15T02:57:08.916Z,19.00
2023-04-15T02:58:08.947Z,21.50
2023-04-15T02:59:08.879Z,22.80
2023-04-15T03:00:08.859Z,21.10
2023-04-15T03:01:08.870Z,20.00
2023-04-15T03:02:08.911Z,18.20
2023-04-15T03:03:09.084Z,18.60
2023-04-15T03:04:08.958Z,19.00
2023-04-15T03:05:08.824Z,15.90
2023-04-15T03:06:09.786Z,19.20
2023-04-15T03:07:08.783Z,20.80
2023-04-15T03:08:08.804Z,23.20
2023-04-15T03:09:08.795Z,19.20
2023-04-15T03:10:08.793Z,27.60
2023-04-15T03:11:08.754Z,24.20
2023-04-15T03:12:08.737Z,17.90
2023-04-15T03:13:08.713Z,20.40
2023-04-15T03:14:08.696Z,15.20
2023-04-15T03:15:08.739Z,16.60
2023-04-15T03:16:08.679Z,23.40
2023-04-15T03:17:08.678Z,23.80
2023-04-15T03:18:08.666Z,23.40
2023-04-15T03:19:08.722Z,20.00
2023-04-15T03:20:08.713Z,17.80
2023-04-15T03:21:08.637Z,22.40
2023-04-15T03:22:08.614Z,19.70
2023-04-15T03:23:08.570Z,23.10
2023-04-15T03:24:08.580Z,20.70
2023-04-15T03:25:09.593Z,18.60
2023-04-15T03:26:08.585Z,19.10
2023-04-15T03:27:08.563Z,22.40
2023-04-15T03:28:08.575Z,19.20
2023-04-15T03:29:08.522Z,18.40
2023-04-15T03:30:08.519Z,20.40
2023-04-15T03:31:08.566Z,19.20
2023-04-15T03:32:08.585Z,18.70
2023-04-15T03:33:08.491Z,19.60
2023-04-15T03:34:09.392Z,19.30
2023-04-15T03:35:08.498Z,20.90
2023-04-15T03:36:08.459Z,17.60
2023-04-15T03:37:08.438Z,19.50
2023-04-15T03:38:08.419Z,20.80
2023-04-15T03:39:08.429Z,20.60
2023-04-15T03:40:08.387Z,21.50
2023-04-15T03:41:08.366Z,20.80
2023-04-15T03:42:09.496Z,21.60
2023-04-15T03:43:08.352Z,17.80
2023-04-15T03:44:08.376Z,21.30
2023-04-15T03:45:08.333Z,22.50
2023-04-15T03:46:08.391Z,20.30
2023-04-15T03:47:08.331Z,19.80
2023-04-15T03:48:17.123Z,18.70
2023-04-15T03:49:10.302Z,18.30
2023-04-15T03:50:08.321Z,19.70
2023-04-15T03:51:08.294Z,22.80
2023-04-15T03:52:08.302Z,20.80
2023-04-15T03:53:08.311Z,21.10
2023-04-15T03:54:08.247Z,23.40
2023-04-15T03:55:08.268Z,16.40
2023-04-15T03:56:08.227Z,20.50
2023-04-15T03:57:08.234Z,17.60
2023-04-15T03:58:08.878Z,18.70
2023-04-15T03:59:08.231Z,15.70
2023-04-15T04:00:08.204Z,18.70
2023-04-15T04:01:08.179Z,19.40
2023-04-15T04:02:08.213Z,18.00
2023-04-15T04:03:08.526Z,24.40
2023-04-15T04:04:08.204Z,19.80
2023-04-15T04:05:08.139Z,20.00
2023-04-15T04:06:08.095Z,20.90
2023-04-15T04:07:08.118Z,19.40
2023-04-15T04:08:08.099Z,18.00
2023-04-15T04:09:08.082Z,19.90
2023-04-15T04:10:08.100Z,21.20
2023-04-15T04:11:08.199Z,19.50
2023-04-15T04:12:08.161Z,18.70
2023-04-15T04:13:08.691Z,22.30
2023-04-15T04:14:08.079Z,23.70
2023-04-15T04:15:08.016Z,19.00
2023-04-15T04:16:08.180Z,27.50
2023-04-15T04:17:08.114Z,20.80
2023-04-15T04:18:08.000Z,22.50
2023-04-15T04:19:07.979Z,19.50
2023-04-15T04:20:07.934Z,19.80
2023-04-15T04:21:07.985Z,20.20
2023-04-15T04:22:07.922Z,21.40
2023-04-15T04:23:07.921Z,22.00
2023-04-15T04:30:22.365Z,18.40
2023-04-15T04:31:23.656Z,18.80
2023-04-15T04:32:23.542Z,21.00
2023-04-15T04:33:23.595Z,20.00
2023-04-15T04:34:23.536Z,17.30
2023-04-15T04:35:23.515Z,18.80
2023-04-15T04:36:23.474Z,23.00
2023-04-15T04:37:23.594Z,21.70
2023-04-15T04:38:23.404Z,21.50
2023-04-15T04:39:23.449Z,18.40
2023-04-15T04:40:23.460Z,20.60
2023-04-15T04:41:23.380Z,18.00
2023-04-15T04:42:24.162Z,20.60
2023-04-15T04:43:23.295Z,23.30
2023-04-15T04:44:23.409Z,18.90
2023-04-15T04:45:23.349Z,21.10
2023-04-15T04:46:23.525Z,25.50
2023-04-15T04:47:23.300Z,26.80
2023-04-15T04:48:23.370Z,25.20
2023-04-15T04:49:23.365Z,23.50
2023-04-15T04:50:23.348Z,22.70
2023-04-15T04:51:23.253Z,21.70
2023-04-15T04:52:23.277Z,25.00
2023-04-15T04:53:23.249Z,23.70
2023-04-15T04:54:23.257Z,21.70
2023-04-15T04:55:23.241Z,27.20
2023-04-15T04:56:23.340Z,21.60
2023-04-15T04:57:23.305Z,25.90
2023-04-15T04:58:23.159Z,22.40
2023-04-15T04:59:23.150Z,21.00
2023-04-15T05:00:23.193Z,22.90
2023-04-15T05:01:23.285Z,18.30
2023-04-15T05:02:23.184Z,22.60
2023-04-15T05:03:23.270Z,21.40
2023-04-15T05:04:23.086Z,22.70
2023-04-15T05:05:23.736Z,23.30
2023-04-15T05:06:23.147Z,23.60
2023-04-15T05:07:23.168Z,21.00
2023-04-15T05:08:23.171Z,21.50
2023-04-15T05:09:23.143Z,27.30
2023-04-15T05:10:23.009Z,24.30
2023-04-15T05:11:23.110Z,23.30
2023-04-15T05:12:23.007Z,23.00
2023-04-15T05:13:22.991Z,21.00
2023-04-15T05:14:23.463Z,20.70
2023-04-15T05:15:24.230Z,20.10
2023-04-15T05:16:23.090Z,20.80
2023-04-15T05:17:23.033Z,21.20
2023-04-15T05:18:22.954Z,22.10
2023-04-15T05:19:23.063Z,22.10
2023-04-15T05:20:22.931Z,21.60
2023-04-15T05:21:22.953Z,21.10
2023-04-15T05:22:22.902Z,21.30
2023-04-15T05:23:22.942Z,22.80
2023-04-15T05:24:22.894Z,19.40
2023-04-15T05:25:23.068Z,23.40
2023-04-15T05:26:22.858Z,25.00
2023-04-15T05:27:22.837Z,26.30
2023-04-15T05:28:22.889Z,28.80
2023-04-15T05:29:22.795Z,29.30
2023-04-15T05:30:22.820Z,29.20
2023-04-15T05:31:22.784Z,29.60
2023-04-15T05:32:22.884Z,28.10
2023-04-15T05:33:22.805Z,28.40
2023-04-15T05:34:22.783Z,28.00
2023-04-15T05:35:22.894Z,28.60
2023-04-15T05:36:22.736Z,29.00
2023-04-15T05:37:22.737Z,28.80
2023-04-15T05:38:22.728Z,27.90
2023-04-15T05:39:22.744Z,29.30
2023-04-15T05:40:22.738Z,29.20
2023-04-15T05:41:22.840Z,28.10
2023-04-15T05:42:22.703Z,29.70
2023-04-15T05:43:22.639Z,28.80
2023-04-15T05:44:22.656Z,27.40
2023-04-15T05:45:22.755Z,28.60
2023-04-15T05:46:22.629Z,29.00
2023-04-15T05:47:22.652Z,27.10
2023-04-15T05:48:22.595Z,28.50
2023-04-15T05:49:23.203Z,28.40
2023-04-15T05:50:22.573Z,29.30
2023-04-15T05:51:22.676Z,29.00
2023-04-15T05:52:22.540Z,27.00
2023-04-15T05:53:22.532Z,28.20
2023-04-15T05:54:22.520Z,29.90
2023-04-15T05:55:22.543Z,28.30
2023-04-15T05:56:22.739Z,28.80
2023-04-15T05:57:22.480Z,26.40
2023-04-15T05:58:22.637Z,26.70
2023-04-15T05:59:48.961Z,26.60
2023-04-15T06:00:34.457Z,24.20
2023-04-15T06:03:22.051Z,24.20
2023-04-15T06:04:14.440Z,25.70
2023-04-15T06:08:20.773Z,25.60
2023-04-15T06:09:25.977Z,28.30
2023-04-15T06:10:23.032Z,24.60
2023-04-15T06:11:21.740Z,23.60
2023-04-15T06:12:21.776Z,24.30
2023-04-15T06:13:21.814Z,26.40
2023-04-15T06:14:21.449Z,21.30
2023-04-15T06:15:23.104Z,25.70
2023-04-15T06:16:22.077Z,21.80
2023-04-15T06:17:26.328Z,25.90
2023-04-15T06:19:55.216Z,22.00
2023-04-15T06:19:58.640Z,20.70
2023-04-15T06:21:01.455Z,20.00
2023-04-15T06:21:58.264Z,21.30
2023-04-15T06:23:21.218Z,19.70
2023-04-15T06:23:59.526Z,19.30
2023-04-15T06:25:00.255Z,20.70
2023-04-15T06:26:01.410Z,20.20
2023-04-15T06:27:00.520Z,18.00
2023-04-15T06:27:57.670Z,17.50
2023-04-15T06:28:57.585Z,17.30
2023-04-15T06:29:57.439Z,18.30
2023-04-15T06:30:57.434Z,16.20
2023-04-15T06:31:58.179Z,19.10
2023-04-15T06:32:57.547Z,18.50
2023-04-15T06:33:58.411Z,16.70
2023-04-15T06:34:57.426Z,18.60
2023-04-15T06:35:57.463Z,18.20
2023-04-15T06:36:57.272Z,19.00
2023-04-15T06:38:00.563Z,17.60
2023-04-15T06:39:01.063Z,18.10
2023-04-15T06:42:39.266Z,18.70
2023-04-15T06:42:55.445Z,18.40
2023-04-15T06:43:49.516Z,18.70
2023-04-15T06:44:53.563Z,19.80
2023-04-15T06:45:53.255Z,16.80
2023-04-15T06:46:55.396Z,17.40
2023-04-15T06:47:43.862Z,18.50
2023-04-15T06:48:44.006Z,17.30
2023-04-15T06:49:43.570Z,16.90
2023-04-15T06:50:43.797Z,18.10
2023-04-15T06:51:44.441Z,18.50
2023-04-15T06:52:43.794Z,17.10
2023-04-15T06:53:44.266Z,20.00
2023-04-15T06:54:44.384Z,18.60
2023-04-15T06:55:47.199Z,18.80
2023-04-15T06:56:45.177Z,17.30
2023-04-15T06:57:44.204Z,17.10
2023-04-15T06:58:43.698Z,18.20
2023-04-15T06:59:46.652Z,16.50
2023-04-15T07:00:53.717Z,18.40
2023-04-15T07:01:43.259Z,18.60
2023-04-15T08:02:57.951Z,21.30
2023-04-15T08:15:27.210Z,21.20
2023-04-15T08:15:43.255Z,19.30
2023-04-15T08:18:17.628Z,18.60
2023-04-15T08:19:51.113Z,17.00
2023-04-15T08:20:31.178Z,17.90
2023-04-15T08:21:20.245Z,17.40
2023-04-15T08:22:28.754Z,15.70
2023-04-15T08:23:19.408Z,15.40
2023-04-15T08:24:42.705Z,18.70
2023-04-15T08:25:20.765Z,15.50
2023-04-15T08:26:17.641Z,15.00
2023-04-15T08:27:28.591Z,14.60
2023-04-15T08:28:22.195Z,14.30
2023-04-15T08:29:23.994Z,14.30
2023-04-15T08:31:48.991Z,14.70
2023-04-15T08:32:06.671Z,15.70
2023-04-15T08:33:06.564Z,15.10
2023-04-15T08:35:17.678Z,15.00
2023-04-15T08:35:20.598Z,15.00
2023-04-15T08:36:31.992Z,15.20
2023-04-15T08:37:20.078Z,13.70
2023-04-15T08:38:19.716Z,13.50
2023-04-15T08:39:20.228Z,14.90
2023-04-15T08:40:20.599Z,13.50
2023-04-15T08:41:26.268Z,14.20
2023-04-15T08:42:26.436Z,13.00
2023-04-15T08:43:27.140Z,11.80
2023-04-15T08:44:19.651Z,13.10
2023-04-15T08:45:19.618Z,11.80
2023-04-15T08:46:19.412Z,12.20
2023-04-15T08:47:19.363Z,11.80
2023-04-15T08:48:19.353Z,10.40
2023-04-15T08:49:19.376Z,10.70
2023-04-15T08:50:19.524Z,10.90
2023-04-15T08:51:19.405Z,11.20
2023-04-15T08:52:19.438Z,11.00
2023-04-15T08:53:19.396Z,10.00
2023-04-15T08:54:19.328Z,11.10
2023-04-15T08:55:19.414Z,10.40
2023-04-15T08:56:19.383Z,10.30
2023-04-15T08:57:19.241Z,12.80
2023-04-15T09:17:17.964Z,10.60
2023-04-15T09:29:28.291Z,10.80
2023-04-15T09:59:46.285Z,8.40
2023-04-15T09:59:47.980Z,8.60
2023-04-15T10:06:37.724Z,8.90
2023-04-15T10:07:37.788Z,11.10
2023-04-15T10:08:37.831Z,11.40
2023-04-15T10:09:38.371Z,12.00
2023-04-15T10:10:44.387Z,11.60
2023-04-15T10:11:37.847Z,16.50
2023-04-15T10:12:38.383Z,17.70
2023-04-15T10:13:38.124Z,14.40
2023-04-15T10:14:38.895Z,15.40
2023-04-15T10:15:37.738Z,12.90
2023-04-15T10:17:59.692Z,12.70
2023-04-15T10:19:27.015Z,17.50
2023-04-15T10:19:30.884Z,10.30
2023-04-15T10:21:50.988Z,11.70
2023-04-15T10:21:53.460Z,12.90
2023-04-15T10:23:09.418Z,9.00
2023-04-15T10:23:53.476Z,11.80
